Skip Navigation LinksHome page > Tools > METAR decoder Skip Navigation Links

METAR decoder

Settings

METAR

Chicago O'Hare Intl, Chicago

For information only: do not use for flight planning or navigation.
Latest weather
Observation time Friday, September 19, 2014 11:51 AM CDT
Local time Friday, September 19, 2014 12:52 PM CDT
Flight conditions Visual Meteorological Conditions
Winds
Wind direction South-Southwest (200°)
Wind speed 14 mph
Wind gusting to 22 mph
Visibility 10 mi.
Sky condition
Ceiling unlimited
Cloud layer few clouds 25,000 ft.
Temperature 71°F
Dewpoint 51°F
Altimeter 30.13 in.Hg
Derived measurements
Relative humidity 49%
Density altitude 1393 ft.
Sea-level pressure 30.13 in.Hg
Remarks
System requires maintenance.
Automated weather observing station with precipitation discriminator.
METAR KORD 191651Z 20012G19KT 10SM FEW250 22/11 A3013 RMK AO2 SLP202 T02170106 $

InnerDrive.Weather 4.0.5372.0 Release CLR 4.0.30319.34014
Copyright ©2014 Inner Drive Technology. All rights reserved. Portions Copyright ©1986-2014 David Braverman.

Find weather

Site navigation


Skip Navigation Links

Place info

Page info

PayPal - The safer, easier way to pay online!

Return home.

Copyright ©2014 Inner Drive Technology. Purveyors of fine, hand-crafted computer software. Page printed 2014-09-19T17:52:17 UTC.